createdAt,value
2019-04-07T00:00:18.729Z,12.62
2019-04-07T00:01:18.743Z,12.57
2019-04-07T00:02:18.764Z,12.50
2019-04-07T00:03:18.791Z,12.55
2019-04-07T00:04:18.803Z,12.55
2019-04-07T00:05:18.825Z,12.53
2019-04-07T00:06:19.081Z,12.54
2019-04-07T00:07:18.978Z,12.50
2019-04-07T00:08:18.876Z,12.47
2019-04-07T00:09:18.956Z,12.40
2019-04-07T00:10:19.185Z,12.35
2019-04-07T00:11:19.543Z,12.39
2019-04-07T00:12:18.956Z,12.39
2019-04-07T00:13:18.968Z,12.40
2019-04-07T00:14:18.983Z,12.35
2019-04-07T00:15:19.004Z,12.32
2019-04-07T00:16:19.024Z,12.32
2019-04-07T00:17:19.236Z,12.28
2019-04-07T00:18:19.160Z,12.28
2019-04-07T00:19:19.094Z,12.25
2019-04-07T00:20:19.816Z,12.31
2019-04-07T00:21:19.116Z,12.21
2019-04-07T00:22:19.137Z,12.28
2019-04-07T00:23:19.151Z,12.22
2019-04-07T00:24:19.314Z,12.20
2019-04-07T00:25:19.324Z,12.20
2019-04-07T00:26:19.208Z,12.24
2019-04-07T00:27:19.224Z,12.18
2019-04-07T00:28:19.612Z,12.15
2019-04-07T00:29:19.559Z,12.10
2019-04-07T00:30:19.781Z,12.06
2019-04-07T00:31:19.440Z,12.15
2019-04-07T00:32:19.984Z,12.09
2019-04-07T00:33:19.333Z,12.06
2019-04-07T00:34:19.354Z,12.02
2019-04-07T00:35:26.804Z,12.06
2019-04-07T00:36:19.396Z,12.02
2019-04-07T00:37:19.416Z,12.03
2019-04-07T00:38:19.437Z,11.90
2019-04-07T00:39:19.463Z,11.91
2019-04-07T00:40:19.686Z,11.99
2019-04-07T00:41:19.969Z,11.94
2019-04-07T00:42:19.497Z,11.95
2019-04-07T00:43:19.927Z,11.97
2019-04-07T00:44:19.906Z,11.88
2019-04-07T00:45:19.550Z,11.94
2019-04-07T00:46:20.053Z,11.87
2019-04-07T00:47:19.600Z,11.88
2019-04-07T00:48:19.607Z,11.84
2019-04-07T00:49:19.626Z,11.84
2019-04-07T00:50:19.651Z,11.81
2019-04-07T00:51:20.571Z,11.68
2019-04-07T00:52:19.681Z,11.75
2019-04-07T00:53:20.037Z,11.80
2019-04-07T00:54:19.717Z,11.80
2019-04-07T00:55:19.736Z,11.78
2019-04-07T00:56:20.452Z,11.77
2019-04-07T00:57:19.910Z,11.69
2019-04-07T00:58:19.794Z,11.69
2019-04-07T00:59:19.807Z,11.70
2019-04-07T01:00:20.335Z,11.68
2019-04-07T01:01:19.852Z,11.68
2019-04-07T01:02:19.862Z,11.66
2019-04-07T01:03:19.963Z,11.65
2019-04-07T01:04:19.969Z,11.70
2019-04-07T01:05:20.613Z,11.60
2019-04-07T01:06:19.946Z,11.72
2019-04-07T01:07:20.147Z,11.68
2019-04-07T01:08:20.593Z,11.65
2019-04-07T01:09:19.989Z,11.68
2019-04-07T01:10:20.510Z,11.68
2019-04-07T01:11:20.120Z,11.69
2019-04-07T01:12:20.428Z,11.65
2019-04-07T01:13:20.059Z,11.59
2019-04-07T01:14:20.104Z,11.66
2019-04-07T01:15:20.258Z,11.68
2019-04-07T01:16:20.735Z,11.62
2019-04-07T01:17:20.133Z,11.70
2019-04-07T01:18:20.632Z,11.60
2019-04-07T01:19:20.170Z,11.63
2019-04-07T01:20:20.660Z,11.57
2019-04-07T01:21:20.424Z,11.68
2019-04-07T01:22:20.767Z,11.62
2019-04-07T01:23:20.933Z,11.57
2019-04-07T01:24:20.980Z,11.66
2019-04-07T01:25:20.374Z,11.60
2019-04-07T01:26:20.295Z,11.63
2019-04-07T01:27:20.417Z,11.63
2019-04-07T01:28:20.878Z,11.59
2019-04-07T01:29:20.945Z,11.65
2019-04-07T01:30:20.366Z,11.66
2019-04-07T01:31:20.939Z,11.68
2019-04-07T01:32:20.401Z,11.68
2019-04-07T01:33:20.734Z,11.65
2019-04-07T01:34:20.664Z,11.51
2019-04-07T01:35:20.457Z,11.54
2019-04-07T01:36:20.483Z,11.51
2019-04-07T01:37:20.954Z,11.47
2019-04-07T01:38:20.510Z,11.62
2019-04-07T01:39:20.535Z,11.51
2019-04-07T01:40:21.035Z,11.45
2019-04-07T01:41:20.571Z,11.52
2019-04-07T01:42:21.313Z,11.45
2019-04-07T01:43:20.615Z,11.51
2019-04-07T01:44:20.619Z,11.47
2019-04-07T01:45:20.666Z,11.59
2019-04-07T01:46:20.721Z,11.60
2019-04-07T01:47:21.050Z,11.57
2019-04-07T01:48:20.690Z,11.60
2019-04-07T01:49:20.710Z,11.68
2019-04-07T01:50:21.067Z,11.62
2019-04-07T01:51:21.104Z,11.66
2019-04-07T01:52:21.194Z,11.70
2019-04-07T01:53:21.314Z,11.66
2019-04-07T01:54:20.839Z,11.68
2019-04-07T01:55:20.824Z,11.66
2019-04-07T01:56:20.843Z,11.73
2019-04-07T01:57:20.985Z,11.78
2019-04-07T01:58:20.871Z,11.66
2019-04-07T01:59:20.966Z,11.70
2019-04-07T02:00:21.538Z,11.72
2019-04-07T02:01:20.947Z,11.83
2019-04-07T02:02:20.943Z,11.70
2019-04-07T02:03:20.970Z,11.78
2019-04-07T02:04:21.932Z,11.73
2019-04-07T02:05:20.998Z,11.77
2019-04-07T02:06:21.132Z,11.65
2019-04-07T02:07:22.150Z,11.69
2019-04-07T02:08:21.059Z,11.59
2019-04-07T02:09:21.488Z,11.57
2019-04-07T02:10:21.088Z,11.54
2019-04-07T02:11:21.226Z,11.57
2019-04-07T02:12:21.175Z,11.55
2019-04-07T02:13:21.467Z,11.57
2019-04-07T02:14:21.376Z,11.59
2019-04-07T02:15:21.738Z,11.65
2019-04-07T02:16:21.244Z,11.62
2019-04-07T02:17:21.869Z,11.68
2019-04-07T02:18:21.233Z,11.65
2019-04-07T02:19:21.626Z,11.68
2019-04-07T02:20:21.267Z,11.66
2019-04-07T02:21:21.558Z,11.62
2019-04-07T02:22:21.314Z,11.52
2019-04-07T02:23:21.326Z,11.55
2019-04-07T02:24:21.342Z,11.44
2019-04-07T02:25:21.952Z,11.51
2019-04-07T02:26:21.514Z,11.51
2019-04-07T02:27:21.400Z,11.50
2019-04-07T02:28:21.839Z,11.43
2019-04-07T02:29:21.936Z,11.36
2019-04-07T02:30:21.728Z,11.36
2019-04-07T02:31:22.482Z,11.30
2019-04-07T02:32:21.586Z,11.32
2019-04-07T02:33:22.521Z,11.32
2019-04-07T02:34:22.003Z,11.22
2019-04-07T02:35:21.546Z,11.26
2019-04-07T02:36:25.716Z,11.23
2019-04-07T02:37:22.552Z,11.19
2019-04-07T02:38:21.590Z,11.19
2019-04-07T02:39:21.610Z,11.17
2019-04-07T02:40:21.630Z,11.19
2019-04-07T02:41:21.648Z,11.25
2019-04-07T02:42:22.727Z,11.22
2019-04-07T02:43:21.680Z,11.14
2019-04-07T02:44:22.050Z,11.15
2019-04-07T02:45:21.895Z,11.22
2019-04-07T02:46:21.733Z,11.18
2019-04-07T02:47:22.601Z,11.17
2019-04-07T02:48:22.104Z,11.02
2019-04-07T02:49:21.794Z,11.15
2019-04-07T02:50:22.061Z,11.07
2019-04-07T02:51:22.079Z,11.07
2019-04-07T02:52:22.864Z,11.05
2019-04-07T02:53:21.857Z,11.05
2019-04-07T02:54:22.682Z,11.15
2019-04-07T02:55:21.957Z,11.11
2019-04-07T02:56:22.533Z,11.18
2019-04-07T02:57:22.224Z,11.12
2019-04-07T02:58:22.768Z,11.12
2019-04-07T02:59:22.986Z,11.10
2019-04-07T03:00:22.274Z,11.05
2019-04-07T03:01:22.123Z,11.02
2019-04-07T03:02:22.053Z,11.02
2019-04-07T03:03:22.786Z,11.00
2019-04-07T03:04:23.061Z,10.93
2019-04-07T03:05:22.302Z,10.87
2019-04-07T03:06:37.787Z,10.89
2019-04-07T03:07:22.110Z,10.92
2019-04-07T03:08:22.617Z,10.89
2019-04-07T03:09:22.145Z,10.93
2019-04-07T03:10:22.814Z,10.90
2019-04-07T03:11:22.432Z,10.89
2019-04-07T03:12:23.315Z,10.87
2019-04-07T03:13:22.925Z,10.92
2019-04-07T03:14:22.234Z,10.90
2019-04-07T03:15:22.715Z,11.00
2019-04-07T03:16:22.472Z,11.00
2019-04-07T03:17:23.211Z,11.05
2019-04-07T03:18:24.212Z,11.05
2019-04-07T03:19:23.382Z,10.99
2019-04-07T03:20:23.114Z,10.93
2019-04-07T03:21:22.584Z,10.90
2019-04-07T03:22:22.374Z,10.94
2019-04-07T03:23:22.403Z,10.92
2019-04-07T03:24:22.442Z,10.92
2019-04-07T03:25:22.431Z,10.93
2019-04-07T03:26:22.447Z,10.90
2019-04-07T03:27:22.465Z,10.94
2019-04-07T03:28:22.739Z,10.92
2019-04-07T03:29:22.499Z,10.96
2019-04-07T03:30:25.163Z,10.93
2019-04-07T03:31:23.945Z,10.87
2019-04-07T03:32:25.994Z,10.87
2019-04-07T03:33:23.636Z,10.84
2019-04-07T03:34:24.113Z,10.81
2019-04-07T03:35:25.722Z,10.75
2019-04-07T03:36:24.301Z,10.74
2019-04-07T03:37:35.133Z,10.67
2019-04-07T03:38:22.657Z,10.63
2019-04-07T03:39:22.675Z,10.72
2019-04-07T03:40:22.692Z,10.64
2019-04-07T03:41:23.705Z,10.64
2019-04-07T03:42:23.190Z,10.51
2019-04-07T03:43:23.767Z,10.60
2019-04-07T03:44:22.764Z,10.59
2019-04-07T03:45:22.790Z,10.60
2019-04-07T03:46:22.805Z,10.63
2019-04-07T03:47:23.489Z,10.71
2019-04-07T03:48:23.137Z,10.74
2019-04-07T03:49:23.495Z,10.69
2019-04-07T03:50:23.082Z,10.67
2019-04-07T03:51:22.886Z,10.59
2019-04-07T03:52:22.905Z,10.59
2019-04-07T03:53:22.920Z,10.60
2019-04-07T03:54:24.123Z,10.72
2019-04-07T03:55:22.956Z,10.68
2019-04-07T03:56:23.194Z,10.64
2019-04-07T03:57:24.118Z,10.63
2019-04-07T03:58:23.006Z,10.67
2019-04-07T03:59:23.026Z,10.63
2019-04-07T04:00:23.076Z,10.67
2019-04-07T04:01:23.991Z,10.64
2019-04-07T04:02:23.086Z,10.63
2019-04-07T04:03:23.096Z,10.68
2019-04-07T04:04:24.149Z,10.71
2019-04-07T04:05:24.225Z,10.68
2019-04-07T04:06:23.150Z,10.72
2019-04-07T04:07:31.334Z,10.67
2019-04-07T04:08:23.192Z,10.63
2019-04-07T04:09:24.115Z,10.61
2019-04-07T04:10:23.702Z,10.61
2019-04-07T04:11:23.634Z,10.54
2019-04-07T04:12:23.254Z,10.49
2019-04-07T04:13:23.271Z,10.54
2019-04-07T04:14:23.943Z,10.54
2019-04-07T04:15:24.186Z,10.46
2019-04-07T04:16:23.455Z,10.46
2019-04-07T04:17:23.341Z,10.37
2019-04-07T04:18:23.359Z,10.40
2019-04-07T04:19:23.374Z,10.34
2019-04-07T04:20:23.878Z,10.33
2019-04-07T04:21:24.277Z,10.37
2019-04-07T04:22:23.431Z,10.31
2019-04-07T04:23:23.446Z,10.40
2019-04-07T04:24:23.475Z,10.34
2019-04-07T04:25:24.451Z,10.28
2019-04-07T04:26:23.779Z,10.33
2019-04-07T04:27:23.811Z,10.23
2019-04-07T04:28:23.771Z,10.34
2019-04-07T04:29:24.611Z,10.33
2019-04-07T04:30:23.625Z,10.20
2019-04-07T04:31:23.583Z,10.15
2019-04-07T04:32:23.603Z,10.20
2019-04-07T04:33:23.652Z,10.15
2019-04-07T04:34:23.824Z,10.07
2019-04-07T04:35:24.570Z,10.09
2019-04-07T04:36:23.989Z,10.10
2019-04-07T04:37:37.685Z,10.04
2019-04-07T04:38:24.199Z,10.01
2019-04-07T04:39:23.730Z,10.01
2019-04-07T04:40:24.271Z,9.97
2019-04-07T04:41:23.757Z,9.99
2019-04-07T04:42:24.829Z,10.01
2019-04-07T04:43:23.801Z,10.09
2019-04-07T04:44:24.199Z,10.07
2019-04-07T04:45:24.583Z,10.02
2019-04-07T04:46:24.035Z,9.95
2019-04-07T04:47:23.863Z,9.94
2019-04-07T04:48:23.880Z,10.02
2019-04-07T04:49:23.908Z,9.94
2019-04-07T04:50:23.918Z,10.07
2019-04-07T04:51:24.057Z,10.07
2019-04-07T04:52:24.100Z,10.05
2019-04-07T04:53:24.231Z,10.07
2019-04-07T04:54:24.573Z,10.09
2019-04-07T04:55:24.283Z,10.07
2019-04-07T04:56:24.289Z,10.02
2019-04-07T04:57:24.032Z,9.99
2019-04-07T04:58:24.763Z,9.99
2019-04-07T04:59:24.073Z,9.95
2019-04-07T05:00:24.458Z,9.95
2019-04-07T05:01:24.104Z,10.02
2019-04-07T05:02:24.468Z,10.04
2019-04-07T05:03:24.920Z,10.01
2019-04-07T05:04:24.215Z,10.02
2019-04-07T05:05:24.387Z,9.99
2019-04-07T05:06:24.337Z,9.99
2019-04-07T05:07:24.505Z,10.04
2019-04-07T05:08:24.719Z,10.07
2019-04-07T05:09:24.532Z,10.07
2019-04-07T05:10:24.813Z,10.05
2019-04-07T05:11:24.817Z,10.20
2019-04-07T05:12:24.442Z,10.16
2019-04-07T05:13:25.034Z,10.13
2019-04-07T05:14:24.325Z,10.09
2019-04-07T05:15:24.350Z,10.15
2019-04-07T05:16:24.363Z,10.07
2019-04-07T05:17:24.383Z,10.13
2019-04-07T05:18:24.400Z,10.25
2019-04-07T05:19:24.414Z,10.20
2019-04-07T05:20:25.179Z,10.33
2019-04-07T05:21:25.020Z,10.31
2019-04-07T05:22:24.466Z,10.38
2019-04-07T05:23:25.112Z,10.35
2019-04-07T05:24:24.755Z,10.46
2019-04-07T05:25:24.929Z,10.57
2019-04-07T05:26:24.535Z,10.59
2019-04-07T05:27:25.106Z,10.69
2019-04-07T05:28:24.575Z,10.68
2019-04-07T05:29:24.788Z,10.68
2019-04-07T05:30:24.602Z,10.67
2019-04-07T05:31:24.683Z,10.59
2019-04-07T05:32:25.199Z,10.64
2019-04-07T05:33:24.654Z,10.60
2019-04-07T05:34:24.674Z,10.53
2019-04-07T05:35:24.998Z,10.59
2019-04-07T05:36:25.245Z,10.61
2019-04-07T05:37:25.324Z,10.61
2019-04-07T05:38:25.579Z,10.63
2019-04-07T05:39:25.014Z,10.63
2019-04-07T05:40:24.779Z,10.68
2019-04-07T05:41:24.793Z,10.71
2019-04-07T05:42:24.813Z,10.71
2019-04-07T05:43:25.211Z,10.74
2019-04-07T05:44:24.845Z,10.81
2019-04-07T05:45:25.450Z,10.86
2019-04-07T05:46:25.078Z,10.90
2019-04-07T05:47:25.504Z,10.89
2019-04-07T05:48:24.975Z,11.00
2019-04-07T05:49:24.933Z,11.04
2019-04-07T05:50:27.432Z,11.05
2019-04-07T05:51:25.057Z,11.07
2019-04-07T05:52:24.993Z,11.12
2019-04-07T05:53:25.411Z,11.10
2019-04-07T05:54:25.023Z,11.14
2019-04-07T05:55:25.040Z,11.17
2019-04-07T05:56:28.122Z,11.19
2019-04-07T05:57:25.082Z,11.19
2019-04-07T05:58:25.098Z,11.29
2019-04-07T05:59:25.411Z,11.35
2019-04-07T06:00:25.140Z,11.36
2019-04-07T06:01:25.883Z,11.43
2019-04-07T06:02:25.602Z,11.45
2019-04-07T06:03:25.420Z,11.52
2019-04-07T06:04:26.015Z,11.54
2019-04-07T06:05:25.494Z,11.54
2019-04-07T06:06:25.877Z,11.60
2019-04-07T06:07:28.768Z,11.66
2019-04-07T06:08:34.043Z,11.68
2019-04-07T06:09:25.285Z,11.75
2019-04-07T06:10:28.506Z,11.81
2019-04-07T06:11:25.899Z,11.83
2019-04-07T06:12:25.345Z,11.84
2019-04-07T06:13:25.355Z,11.99
2019-04-07T06:14:25.964Z,11.99
2019-04-07T06:15:25.850Z,12.10
2019-04-07T06:16:25.410Z,12.15
2019-04-07T06:17:26.365Z,12.12
2019-04-07T06:18:26.023Z,12.10
2019-04-07T06:19:26.035Z,12.07
2019-04-07T06:20:25.483Z,12.10
2019-04-07T06:21:26.186Z,12.12
2019-04-07T06:22:25.918Z,12.18
2019-04-07T06:23:28.569Z,12.10
2019-04-07T06:24:26.859Z,12.24
2019-04-07T06:25:25.577Z,12.25
2019-04-07T06:26:25.632Z,12.28
2019-04-07T06:27:25.607Z,12.25
2019-04-07T06:28:26.621Z,12.24
2019-04-07T06:29:26.476Z,12.25
2019-04-07T06:30:28.086Z,12.27
2019-04-07T06:31:26.347Z,12.31
2019-04-07T06:32:25.697Z,12.37
2019-04-07T06:33:26.245Z,12.39
2019-04-07T06:34:25.778Z,12.35
2019-04-07T06:35:26.045Z,12.53
2019-04-07T06:36:26.808Z,12.53
2019-04-07T06:37:29.163Z,12.54
2019-04-07T06:38:33.045Z,12.55
2019-04-07T06:39:26.588Z,12.57
2019-04-07T06:40:25.844Z,12.62
2019-04-07T06:41:29.879Z,12.64
2019-04-07T06:42:26.672Z,12.75
2019-04-07T06:43:25.894Z,12.75
2019-04-07T06:44:25.922Z,12.79
2019-04-07T06:45:25.934Z,12.83
2019-04-07T06:46:28.495Z,12.86
2019-04-07T06:47:26.037Z,12.87
2019-04-07T06:48:26.707Z,12.91
2019-04-07T06:49:28.437Z,12.94
2019-04-07T06:50:26.026Z,13.00
2019-04-07T06:51:29.212Z,13.04
2019-04-07T06:52:26.061Z,13.08
2019-04-07T06:53:26.078Z,13.16
2019-04-07T06:54:26.095Z,13.00
2019-04-07T06:55:28.479Z,13.09
2019-04-07T06:56:26.137Z,13.20
2019-04-07T06:57:26.583Z,13.15
2019-04-07T06:58:26.618Z,13.12
2019-04-07T06:59:26.214Z,13.31
2019-04-07T07:00:26.211Z,13.27
2019-04-07T07:01:26.615Z,13.33
2019-04-07T07:02:29.075Z,13.27
2019-04-07T07:03:26.977Z,13.33
2019-04-07T07:04:26.522Z,13.41
2019-04-07T07:05:26.742Z,13.47
2019-04-07T07:06:26.839Z,13.53
2019-04-07T07:07:26.336Z,13.57
2019-04-07T07:08:26.737Z,13.59
2019-04-07T07:09:27.772Z,13.59
2019-04-07T07:10:30.153Z,13.71
2019-04-07T07:11:29.257Z,13.71
2019-04-07T07:12:32.829Z,13.65
2019-04-07T07:13:32.238Z,13.67
2019-04-07T07:14:36.705Z,13.77
2019-04-07T07:15:26.787Z,13.77
2019-04-07T07:16:26.520Z,13.77
2019-04-07T07:17:26.845Z,13.86
2019-04-07T07:18:27.255Z,13.97
2019-04-07T07:19:28.590Z,13.97
2019-04-07T07:20:28.804Z,14.04
2019-04-07T07:21:27.375Z,14.08
2019-04-07T07:22:26.944Z,14.00
2019-04-07T07:23:27.313Z,14.20
2019-04-07T07:24:27.580Z,14.20
2019-04-07T07:25:29.792Z,14.15
2019-04-07T07:26:26.692Z,14.12
2019-04-07T07:27:27.382Z,14.18
2019-04-07T07:28:27.366Z,14.30
2019-04-07T07:29:26.962Z,14.28
2019-04-07T07:30:27.169Z,14.32
2019-04-07T07:31:26.794Z,14.43
2019-04-07T07:32:26.928Z,14.48
2019-04-07T07:33:27.007Z,14.55
2019-04-07T07:34:27.304Z,14.55
2019-04-07T07:35:27.310Z,14.62
2019-04-07T07:36:27.396Z,14.72
2019-04-07T07:37:26.980Z,14.70
2019-04-07T07:38:30.254Z,14.78
2019-04-07T07:39:27.195Z,14.77
2019-04-07T07:40:27.558Z,14.85
2019-04-07T07:41:26.987Z,14.91
2019-04-07T07:42:27.719Z,14.89
2019-04-07T07:43:29.250Z,14.96
2019-04-07T07:44:27.738Z,15.04
2019-04-07T07:45:27.353Z,15.11
2019-04-07T07:46:27.867Z,15.19
2019-04-07T07:47:27.490Z,15.11
2019-04-07T07:48:28.353Z,15.15
2019-04-07T07:49:30.702Z,15.17
2019-04-07T07:50:28.375Z,15.21
2019-04-07T07:51:27.176Z,15.27
2019-04-07T07:52:27.193Z,15.37
2019-04-07T07:53:28.626Z,15.42
2019-04-07T07:54:28.266Z,15.37
2019-04-07T07:55:27.425Z,15.40
2019-04-07T07:56:27.275Z,15.40
2019-04-07T07:57:27.367Z,15.35
2019-04-07T07:58:30.831Z,15.49
2019-04-07T07:59:30.730Z,15.47
2019-04-07T08:00:27.349Z,15.49
2019-04-07T08:01:27.371Z,15.57
2019-04-07T08:02:29.616Z,15.67
2019-04-07T08:03:27.409Z,15.67
2019-04-07T08:04:27.673Z,15.67
2019-04-07T08:05:31.773Z,15.77
2019-04-07T08:06:27.476Z,15.77
2019-04-07T08:07:28.723Z,15.82
2019-04-07T08:08:27.659Z,15.76
2019-04-07T08:09:28.235Z,15.82
2019-04-07T08:10:27.656Z,15.88
2019-04-07T08:11:30.952Z,15.98
2019-04-07T08:12:28.133Z,16.13
2019-04-07T08:13:27.609Z,16.21
2019-04-07T08:14:28.318Z,16.12
2019-04-07T08:15:31.966Z,16.24
2019-04-07T08:16:31.199Z,16.24
2019-04-07T08:17:27.755Z,16.26
2019-04-07T08:18:27.709Z,16.33
2019-04-07T08:19:29.639Z,16.38
2019-04-07T08:20:28.542Z,16.47
2019-04-07T08:21:28.052Z,16.41
2019-04-07T08:22:33.605Z,16.41
2019-04-07T08:23:28.579Z,16.53
2019-04-07T08:24:28.291Z,16.56
2019-04-07T08:25:28.145Z,16.57
2019-04-07T08:26:27.918Z,16.61
2019-04-07T08:27:31.518Z,16.74
2019-04-07T08:28:27.995Z,16.65
2019-04-07T08:29:28.050Z,16.64
2019-04-07T08:30:28.278Z,16.81
2019-04-07T08:31:28.256Z,16.96
2019-04-07T08:32:30.884Z,16.93
2019-04-07T08:33:29.537Z,16.96
2019-04-07T08:34:30.564Z,16.91
2019-04-07T08:35:28.838Z,17.12
2019-04-07T08:36:28.077Z,17.26
2019-04-07T08:37:28.627Z,17.26
2019-04-07T08:38:28.420Z,17.26
2019-04-07T08:39:32.386Z,17.29
2019-04-07T08:40:28.556Z,17.24
2019-04-07T08:41:28.810Z,17.22
2019-04-07T08:42:28.198Z,17.12
2019-04-07T08:43:28.220Z,17.15
2019-04-07T08:44:29.662Z,17.26
2019-04-07T08:45:29.985Z,17.29
2019-04-07T08:46:30.639Z,17.20
2019-04-07T08:47:28.969Z,17.29
2019-04-07T08:48:28.942Z,17.16
2019-04-07T08:49:28.347Z,17.31
2019-04-07T08:50:28.697Z,17.38
2019-04-07T08:51:30.776Z,17.48
2019-04-07T08:52:28.556Z,17.48
2019-04-07T08:53:28.434Z,17.39
2019-04-07T08:54:28.625Z,17.44
2019-04-07T08:55:28.494Z,17.48
2019-04-07T08:56:29.063Z,17.41
2019-04-07T08:57:30.550Z,17.29
2019-04-07T08:58:30.087Z,17.46
2019-04-07T08:59:29.141Z,17.54
2019-04-07T09:00:29.394Z,17.52
2019-04-07T09:01:29.680Z,17.65
2019-04-07T09:02:30.882Z,17.74
2019-04-07T09:03:29.213Z,17.80
2019-04-07T09:04:29.428Z,17.71
2019-04-07T09:05:31.018Z,17.78
2019-04-07T09:06:29.598Z,17.86
2019-04-07T09:07:28.752Z,17.87
2019-04-07T09:08:29.537Z,17.95
2019-04-07T09:09:33.862Z,17.90
2019-04-07T09:10:28.844Z,17.87
2019-04-07T09:11:29.283Z,17.92
2019-04-07T09:12:30.789Z,17.94
2019-04-07T09:13:31.656Z,17.95
2019-04-07T09:14:29.513Z,17.92
2019-04-07T09:15:28.899Z,18.01
2019-04-07T09:16:29.070Z,18.07
2019-04-07T09:17:33.239Z,18.11
2019-04-07T09:18:28.975Z,18.10
2019-04-07T09:19:28.985Z,18.05
2019-04-07T09:20:29.203Z,18.05
2019-04-07T09:21:38.824Z,17.97
2019-04-07T09:22:30.710Z,18.03
2019-04-07T09:23:29.489Z,18.04
2019-04-07T09:24:31.424Z,18.03
2019-04-07T09:25:31.878Z,17.98
2019-04-07T09:26:29.141Z,18.04
2019-04-07T09:27:29.163Z,18.15
2019-04-07T09:28:29.831Z,18.26
2019-04-07T09:29:30.039Z,18.38
2019-04-07T09:30:29.712Z,18.44
2019-04-07T09:31:29.298Z,18.49
2019-04-07T09:32:30.102Z,18.45
2019-04-07T09:33:29.797Z,18.55
2019-04-07T09:34:29.323Z,18.62
2019-04-07T09:35:29.805Z,18.52
2019-04-07T09:36:31.600Z,18.34
2019-04-07T09:37:29.379Z,18.26
2019-04-07T09:38:29.486Z,18.26
2019-04-07T09:39:34.518Z,18.35
2019-04-07T09:40:30.309Z,18.52
2019-04-07T09:41:29.769Z,18.58
2019-04-07T09:42:29.490Z,18.65
2019-04-07T09:43:30.626Z,18.84
2019-04-07T09:44:34.028Z,18.81
2019-04-07T09:45:29.792Z,18.77
2019-04-07T09:46:29.978Z,18.66
2019-04-07T09:47:30.325Z,18.80
2019-04-07T09:48:29.643Z,18.80
2019-04-07T09:49:29.962Z,18.95
2019-04-07T09:50:29.668Z,18.86
2019-04-07T09:51:29.846Z,18.93
2019-04-07T09:52:30.510Z,18.83
2019-04-07T09:53:30.443Z,18.75
2019-04-07T09:54:29.772Z,18.78
2019-04-07T09:55:30.103Z,18.74
2019-04-07T09:56:32.362Z,18.73
2019-04-07T09:57:30.315Z,18.86
2019-04-07T09:58:29.843Z,18.99
2019-04-07T09:59:30.657Z,19.21
2019-04-07T10:00:30.002Z,19.18
2019-04-07T10:01:30.731Z,19.29
2019-04-07T10:02:33.582Z,19.24
2019-04-07T10:03:29.955Z,19.24
2019-04-07T10:04:29.980Z,19.34
2019-04-07T10:05:30.902Z,19.27
2019-04-07T10:06:30.022Z,19.26
2019-04-07T10:07:30.489Z,19.34
2019-04-07T10:08:30.370Z,19.30
2019-04-07T10:09:30.090Z,19.37
2019-04-07T10:10:30.348Z,19.41
2019-04-07T10:11:30.283Z,19.49
2019-04-07T10:12:30.190Z,19.49
2019-04-07T10:13:30.690Z,19.58
2019-04-07T10:14:30.724Z,19.55
2019-04-07T10:15:30.227Z,19.64
2019-04-07T10:16:32.960Z,19.56
2019-04-07T10:17:30.269Z,19.63
2019-04-07T10:18:32.515Z,19.63
2019-04-07T10:19:30.315Z,19.55
2019-04-07T10:20:30.339Z,19.64
2019-04-07T10:21:31.143Z,19.58
2019-04-07T10:22:30.598Z,19.59
2019-04-07T10:23:30.404Z,19.74
2019-04-07T10:24:31.384Z,19.77
2019-04-07T10:25:30.453Z,19.77
2019-04-07T10:26:31.352Z,19.62
2019-04-07T10:27:31.313Z,19.52
2019-04-07T10:28:31.175Z,19.55
2019-04-07T10:29:30.795Z,19.74
2019-04-07T10:30:30.567Z,19.86
2019-04-07T10:31:30.595Z,19.74
2019-04-07T10:32:30.861Z,19.81
2019-04-07T10:33:31.575Z,19.88
2019-04-07T10:34:30.918Z,19.99
2019-04-07T10:35:30.737Z,19.95
2019-04-07T10:36:30.877Z,20.11
2019-04-07T10:37:31.464Z,20.13
2019-04-07T10:38:31.685Z,20.02
2019-04-07T10:39:30.771Z,19.85
2019-04-07T10:40:31.138Z,19.84
2019-04-07T10:41:31.198Z,19.99
2019-04-07T10:42:30.847Z,20.11
2019-04-07T10:43:31.355Z,20.10
2019-04-07T10:44:31.449Z,20.13
2019-04-07T10:45:30.908Z,20.13
2019-04-07T10:46:30.942Z,20.09
2019-04-07T10:47:30.967Z,20.13
2019-04-07T10:48:31.694Z,20.16
2019-04-07T10:49:31.149Z,20.22
2019-04-07T10:50:31.412Z,20.00
2019-04-07T10:51:31.898Z,19.92
2019-04-07T10:52:31.451Z,19.88
2019-04-07T10:53:32.254Z,20.13
2019-04-07T10:54:31.421Z,20.28
2019-04-07T10:55:31.197Z,20.24
2019-04-07T10:56:31.947Z,20.25
2019-04-07T10:57:31.187Z,20.32
2019-04-07T10:58:31.327Z,20.39
2019-04-07T10:59:32.119Z,20.39
2019-04-07T11:00:31.384Z,20.32
2019-04-07T11:01:32.096Z,20.26
2019-04-07T11:02:31.455Z,20.11
2019-04-07T11:03:31.331Z,20.09
2019-04-07T11:04:31.670Z,20.06
2019-04-07T11:05:31.549Z,20.03
2019-04-07T11:06:31.597Z,20.11
2019-04-07T11:07:31.672Z,20.11
2019-04-07T11:08:32.107Z,20.21
2019-04-07T11:09:31.952Z,20.22
2019-04-07T11:10:36.121Z,20.24
2019-04-07T11:11:31.517Z,20.22
2019-04-07T11:12:31.541Z,20.22
2019-04-07T11:13:32.568Z,20.29
2019-04-07T11:14:31.596Z,20.26
2019-04-07T11:15:31.613Z,20.32
2019-04-07T11:16:31.633Z,20.34
2019-04-07T11:17:31.661Z,20.40
2019-04-07T11:18:31.673Z,20.37
2019-04-07T11:19:32.258Z,20.34
2019-04-07T11:20:31.862Z,20.43
2019-04-07T11:21:31.744Z,20.56
2019-04-07T11:22:31.774Z,20.65
2019-04-07T11:23:31.994Z,20.59
2019-04-07T11:24:31.824Z,20.58
2019-04-07T11:25:32.336Z,20.41
2019-04-07T11:26:31.998Z,20.34
2019-04-07T11:27:31.886Z,20.32
2019-04-07T11:28:31.916Z,20.25
2019-04-07T11:29:32.606Z,20.13
2019-04-07T11:30:31.956Z,20.13
2019-04-07T11:31:32.204Z,20.14
2019-04-07T11:32:32.333Z,20.11
2019-04-07T11:33:32.812Z,20.11
2019-04-07T11:34:33.043Z,20.11
2019-04-07T11:35:32.130Z,20.00
2019-04-07T11:36:32.099Z,19.94
2019-04-07T11:37:32.851Z,19.89
2019-04-07T11:38:32.329Z,19.94
2019-04-07T11:39:32.692Z,20.02
2019-04-07T11:40:41.937Z,20.07
2019-04-07T11:41:32.827Z,20.04
2019-04-07T11:42:33.327Z,20.03
2019-04-07T11:43:32.593Z,20.09
2019-04-07T11:44:32.330Z,20.14
2019-04-07T11:45:32.312Z,20.14
2019-04-07T11:46:32.979Z,20.13
2019-04-07T11:47:32.923Z,20.06
2019-04-07T11:48:33.201Z,20.22
2019-04-07T11:49:32.405Z,20.21
2019-04-07T11:50:32.741Z,20.34
2019-04-07T11:51:32.586Z,20.47
2019-04-07T11:52:33.316Z,20.63
2019-04-07T11:53:33.128Z,20.56
2019-04-07T11:54:32.718Z,20.65
2019-04-07T11:55:33.429Z,20.60
2019-04-07T11:56:32.560Z,20.63
2019-04-07T11:57:33.464Z,20.51
2019-04-07T11:58:34.503Z,20.60
2019-04-07T11:59:32.960Z,20.56
2019-04-07T12:00:33.337Z,20.48
2019-04-07T12:01:32.851Z,20.51
2019-04-07T12:02:33.062Z,20.58
2019-04-07T12:03:32.724Z,20.66
2019-04-07T12:04:32.752Z,20.65
2019-04-07T12:05:33.358Z,20.77
2019-04-07T12:06:33.193Z,20.80
2019-04-07T12:07:33.398Z,20.75
2019-04-07T12:08:36.169Z,20.77
2019-04-07T12:09:33.621Z,20.81
2019-04-07T12:10:33.205Z,20.88
2019-04-07T12:11:32.912Z,20.87
2019-04-07T12:12:32.934Z,21.02
2019-04-07T12:13:33.038Z,21.00
2019-04-07T12:14:33.714Z,20.97
2019-04-07T12:15:33.526Z,21.02
2019-04-07T12:16:33.744Z,20.85
2019-04-07T12:17:33.056Z,20.87
2019-04-07T12:18:33.074Z,20.95
2019-04-07T12:19:33.366Z,20.82
2019-04-07T12:20:34.739Z,20.77
2019-04-07T12:21:36.961Z,20.82
2019-04-07T12:22:33.807Z,20.93
2019-04-07T12:23:33.732Z,20.82
2019-04-07T12:24:33.667Z,21.00
2019-04-07T12:25:33.877Z,21.00
2019-04-07T12:26:37.219Z,20.95
2019-04-07T12:27:33.438Z,21.09
2019-04-07T12:28:33.468Z,21.09
2019-04-07T12:29:34.187Z,20.97
2019-04-07T12:30:33.805Z,20.92
2019-04-07T12:31:33.654Z,20.90
2019-04-07T12:32:34.245Z,21.02
2019-04-07T12:33:37.431Z,20.99
2019-04-07T12:34:34.320Z,21.05
2019-04-07T12:35:34.080Z,21.05
2019-04-07T12:36:34.351Z,21.05
2019-04-07T12:37:38.051Z,21.06
2019-04-07T12:38:33.868Z,21.02
2019-04-07T12:39:34.935Z,20.97
2019-04-07T12:40:34.258Z,20.99
2019-04-07T12:41:33.627Z,21.05
2019-04-07T12:42:37.428Z,21.11
2019-04-07T12:43:33.988Z,21.03
2019-04-07T12:44:34.270Z,21.09
2019-04-07T12:45:35.802Z,21.14
2019-04-07T12:46:34.548Z,21.07
2019-04-07T12:47:34.357Z,21.12
2019-04-07T12:48:33.798Z,21.09
2019-04-07T12:49:35.200Z,21.09
2019-04-07T12:50:33.870Z,21.12
2019-04-07T12:51:33.970Z,21.09
2019-04-07T12:52:33.890Z,21.07
2019-04-07T12:53:36.278Z,21.14